Time;durP1;ratioP1;P1;durP2;ratioP2;P2;SDS_P1;SDS_P2;PMS_P1;PMS_P2;Temp;Humidity;BMP_temperature;BMP_pressure;BME280_temperature;BME280_humidity;BME280_pressure;Samples;Min_cycle;Max_cycle;Signal;HPM_P1;HPM_P2
2022/09/21 00:01:59;;;;;;;2.70;0.57;;;;;;;;;;5095757;28;20122;-48
2022/09/21 00:04:26;;;;;;;2.65;0.65;;;;;;;;;;5096079;28;20056;-51
2022/09/21 00:06:53;;;;;;;1.83;0.75;;;;;;;;;;5085579;28;20047;-50
2022/09/21 00:09:32;;;;;;;3.08;0.95;;;;;;;;;;5095817;28;20052;-48
2022/09/21 00:12:09;;;;;;;2.35;0.90;;;;;;;;;;5095938;28;20063;-50
2022/09/21 00:14:39;;;;;;;1.50;0.60;;;;;;;;;;5096041;28;20056;-50
2022/09/21 00:17:08;;;;;;;1.52;0.65;;;;;;;;;;5085714;28;20056;-50
2022/09/21 00:19:39;;;;;;;2.55;0.60;;;;;;;;;;5094991;28;20072;-48
2022/09/21 00:22:08;;;;;;;3.47;0.85;;;;;;;;;;5093916;28;20070;-48
2022/09/21 00:24:35;;;;;;;2.50;0.90;;;;;;;;;;5082169;28;20358;-51
2022/09/21 00:27:16;;;;;;;5.15;1.90;;;;;;;;;;5095103;28;20056;-49
2022/09/21 00:29:47;;;;;;;2.35;0.82;;;;;;;;;;5076299;28;20049;-49
2022/09/21 00:32:16;;;;;;;3.15;1.00;;;;;;;;;;5094974;28;20083;-49
2022/09/21 00:34:44;;;;;;;6.80;2.92;;;;;;;;;;5085109;28;20131;-48
2022/09/21 00:37:13;;;;;;;2.83;1.73;;;;;;;;;;5094344;28;20171;-49
2022/09/21 00:39:41;;;;;;;2.63;1.27;;;;;;;;;;5084823;28;20076;-48
2022/09/21 00:42:10;;;;;;;2.38;0.90;;;;;;;;;;5090396;28;20058;-49
2022/09/21 00:44:37;;;;;;;3.10;0.77;;;;;;;;;;5094810;28;20059;-48
2022/09/21 00:47:11;;;;;;;1.52;0.52;;;;;;;;;;5093137;28;20052;-50
2022/09/21 00:49:40;;;;;;;4.20;0.90;;;;;;;;;;5094166;28;20135;-49
2022/09/21 00:52:10;;;;;;;3.15;0.80;;;;;;;;;;5094013;28;20051;-48
2022/09/21 00:54:37;;;;;;;1.92;0.50;;;;;;;;;;5091739;28;20051;-48
2022/09/21 00:57:07;;;;;;;1.77;0.65;;;;;;;;;;5094208;28;20052;-48
2022/09/21 00:59:38;;;;;;;2.40;0.90;;;;;;;;;;5093380;28;20050;-48
2022/09/21 01:02:08;;;;;;;0.82;0.40;;;;;;;;;;5094021;28;20077;-51
2022/09/21 01:04:38;;;;;;;2.28;0.77;;;;;;;;;;5093974;28;20043;-51
2022/09/21 01:07:09;;;;;;;1.42;0.60;;;;;;;;;;5094119;28;20052;-49
2022/09/21 01:09:38;;;;;;;1.65;0.68;;;;;;;;;;5093897;28;20047;-48
2022/09/21 01:12:13;;;;;;;2.17;0.70;;;;;;;;;;5094118;28;20044;-52
2022/09/21 01:14:52;;;;;;;1.55;0.73;;;;;;;;;;5093996;28;20401;-49
2022/09/21 01:17:27;;;;;;;3.75;0.70;;;;;;;;;;5093283;28;20056;-49
2022/09/21 01:20:13;;;;;;;1.58;0.77;;;;;;;;;;5093171;28;20060;-49
2022/09/21 01:22:51;;;;;;;2.47;0.90;;;;;;;;;;5088690;28;20147;-50
2022/09/21 01:25:27;;;;;;;3.78;0.95;;;;;;;;;;5087722;28;20048;-51
2022/09/21 01:28:00;;;;;;;1.83;0.68;;;;;;;;;;5080899;28;20058;-51
2022/09/21 01:30:36;;;;;;;1.98;0.60;;;;;;;;;;5094218;28;20051;-48
2022/09/21 01:33:05;;;;;;;2.28;0.80;;;;;;;;;;5080970;28;20136;-49
2022/09/21 01:35:35;;;;;;;2.60;0.70;;;;;;;;;;5094166;28;20055;-49
2022/09/21 01:38:04;;;;;;;2.05;0.88;;;;;;;;;;5077712;28;20064;-49
2022/09/21 01:40:34;;;;;;;3.45;0.82;;;;;;;;;;5094132;28;20062;-51
2022/09/21 01:43:05;;;;;;;3.92;0.82;;;;;;;;;;5093479;28;20052;-50
2022/09/21 01:45:37;;;;;;;1.67;0.75;;;;;;;;;;5093764;28;20048;-49
2022/09/21 01:48:03;;;;;;;1.85;0.85;;;;;;;;;;5093098;28;20044;-50
2022/09/21 01:50:32;;;;;;;2.33;1.00;;;;;;;;;;5093354;28;20063;-52
2022/09/21 01:53:04;;;;;;;6.28;1.17;;;;;;;;;;5092986;28;20097;-49
2022/09/21 01:55:41;;;;;;;1.63;0.75;;;;;;;;;;5093397;28;20052;-49
2022/09/21 01:58:12;;;;;;;4.30;0.90;;;;;;;;;;5093400;28;20051;-49
2022/09/21 02:00:47;;;;;;;2.28;1.15;;;;;;;;;;5093653;28;20052;-48
2022/09/21 02:03:16;;;;;;;2.43;1.07;;;;;;;;;;5092524;28;20138;-49
2022/09/21 02:05:45;;;;;;;3.88;0.90;;;;;;;;;;5093098;28;20398;-48
2022/09/21 02:08:15;;;;;;;2.33;1.00;;;;;;;;;;5093113;28;20044;-49
2022/09/21 02:10:46;;;;;;;2.17;0.82;;;;;;;;;;5093489;28;20051;-50
2022/09/21 02:13:23;;;;;;;3.03;1.27;;;;;;;;;;5090577;28;20040;-48
2022/09/21 02:16:15;;;;;;;2.85;0.80;;;;;;;;;;5083119;28;20050;-48
2022/09/21 02:18:50;;;;;;;2.22;0.90;;;;;;;;;;5079832;28;20048;-50
2022/09/21 02:21:26;;;;;;;2.92;0.77;;;;;;;;;;5083022;28;20052;-48
2022/09/21 02:23:57;;;;;;;2.03;0.77;;;;;;;;;;5090115;28;20124;-47
2022/09/21 02:26:28;;;;;;;4.22;0.90;;;;;;;;;;5093013;28;20119;-48
2022/09/21 02:29:00;;;;;;;5.57;1.33;;;;;;;;;;5092324;28;20060;-48
2022/09/21 02:31:37;;;;;;;2.63;0.98;;;;;;;;;;5092795;28;20040;-47
2022/09/21 02:34:20;;;;;;;2.28;0.73;;;;;;;;;;5093077;28;20047;-50
2022/09/21 02:36:49;;;;;;;1.73;0.60;;;;;;;;;;5092439;28;20145;-48
2022/09/21 02:39:19;;;;;;;1.55;0.73;;;;;;;;;;5090412;28;20058;-49
2022/09/21 02:42:01;;;;;;;1.88;0.68;;;;;;;;;;5089478;28;20036;-50
2022/09/21 02:44:32;;;;;;;1.95;0.80;;;;;;;;;;5092600;28;20075;-49
2022/09/21 02:47:17;;;;;;;4.07;0.95;;;;;;;;;;5092223;28;20067;-49
2022/09/21 02:49:46;;;;;;;4.82;1.13;;;;;;;;;;5093051;28;20051;-49
2022/09/21 02:52:14;;;;;;;1.27;0.60;;;;;;;;;;5091087;28;20045;-48
2022/09/21 02:54:45;;;;;;;1.40;0.85;;;;;;;;;;5085081;28;20047;-48
2022/09/21 02:57:14;;;;;;;2.72;0.70;;;;;;;;;;5089664;28;20047;-50
2022/09/21 02:59:40;;;;;;;3.00;0.80;;;;;;;;;;5095971;28;20548;-48
2022/09/21 03:02:22;;;;;;;2.30;0.90;;;;;;;;;;5096155;28;20056;-49
2022/09/21 03:04:53;;;;;;;2.50;0.70;;;;;;;;;;5096569;28;20173;-48
2022/09/21 03:07:20;;;;;;;1.73;0.52;;;;;;;;;;5096096;28;20405;-48
2022/09/21 03:09:53;;;;;;;1.98;0.70;;;;;;;;;;5096497;28;20105;-47
2022/09/21 03:12:22;;;;;;;3.17;0.80;;;;;;;;;;5096566;28;20050;-48
2022/09/21 03:14:50;;;;;;;1.08;0.73;;;;;;;;;;5095500;28;20048;-47
2022/09/21 03:17:25;;;;;;;3.78;0.60;;;;;;;;;;5096248;28;20152;-48
2022/09/21 03:19:53;;;;;;;1.60;0.60;;;;;;;;;;5082559;28;20124;-48
2022/09/21 03:22:20;;;;;;;3.45;0.60;;;;;;;;;;5089075;28;20044;-51
2022/09/21 03:24:47;;;;;;;1.92;0.80;;;;;;;;;;5096029;28;20054;-47
2022/09/21 03:27:16;;;;;;;1.38;0.60;;;;;;;;;;5096413;28;20067;-46
2022/09/21 03:29:46;;;;;;;1.17;0.47;;;;;;;;;;5095763;28;20356;-47
2022/09/21 03:32:22;;;;;;;0.98;0.40;;;;;;;;;;5096741;28;20098;-47
2022/09/21 03:34:55;;;;;;;1.58;0.52;;;;;;;;;;5091524;28;20080;-45
2022/09/21 03:37:23;;;;;;;0.70;0.40;;;;;;;;;;5096365;28;20052;-46
2022/09/21 03:39:50;;;;;;;4.93;0.65;;;;;;;;;;5089354;28;20101;-47
2022/09/21 03:42:20;;;;;;;2.65;1.10;;;;;;;;;;5095989;28;20105;-46
2022/09/21 03:44:50;;;;;;;1.30;0.80;;;;;;;;;;5095876;28;20052;-46
2022/09/21 03:47:28;;;;;;;3.53;0.73;;;;;;;;;;5095995;28;20056;-47
2022/09/21 03:49:58;;;;;;;1.05;0.55;;;;;;;;;;5095979;28;20059;-47
2022/09/21 03:52:28;;;;;;;3.05;0.80;;;;;;;;;;5092841;28;20472;-47
2022/09/21 03:54:58;;;;;;;2.50;0.60;;;;;;;;;;5092543;28;20083;-46
2022/09/21 03:57:26;;;;;;;2.92;0.75;;;;;;;;;;5095379;28;20051;-46
2022/09/21 03:59:56;;;;;;;0.95;0.35;;;;;;;;;;5095868;28;20067;-50
2022/09/21 04:02:24;;;;;;;1.35;0.40;;;;;;;;;;5095648;28;20048;-46
2022/09/21 04:04:54;;;;;;;1.05;0.35;;;;;;;;;;5095387;28;20055;-47
2022/09/21 04:07:32;;;;;;;1.35;0.45;;;;;;;;;;5095564;28;20105;-47
2022/09/21 04:10:00;;;;;;;2.25;0.40;;;;;;;;;;5085956;28;20059;-47
2022/09/21 04:12:30;;;;;;;1.20;0.40;;;;;;;;;;5091042;28;20066;-47
2022/09/21 04:14:57;;;;;;;0.85;0.43;;;;;;;;;;5095184;28;20056;-47
2022/09/21 04:17:25;;;;;;;2.95;0.73;;;;;;;;;;5089480;28;20052;-48
2022/09/21 04:19:54;;;;;;;0.60;0.40;;;;;;;;;;5095056;28;20066;-47
2022/09/21 04:22:24;;;;;;;2.22;0.50;;;;;;;;;;5094143;28;20044;-46
2022/09/21 04:24:54;;;;;;;1.52;0.30;;;;;;;;;;5097374;28;20052;-48
2022/09/21 04:27:22;;;;;;;2.28;0.45;;;;;;;;;;5094308;28;20052;-49
2022/09/21 04:29:51;;;;;;;1.60;0.30;;;;;;;;;;5095011;28;20052;-48
2022/09/21 04:32:20;;;;;;;0.60;0.40;;;;;;;;;;5095352;28;20056;-47
2022/09/21 04:34:47;;;;;;;1.00;0.43;;;;;;;;;;5094835;28;20048;-48
2022/09/21 04:37:17;;;;;;;1.17;0.32;;;;;;;;;;5095143;28;20052;-48
2022/09/21 04:39:46;;;;;;;3.10;0.80;;;;;;;;;;5088372;28;20064;-48
2022/09/21 04:42:15;;;;;;;2.97;0.82;;;;;;;;;;5093095;28;20048;-48
2022/09/21 04:44:41;;;;;;;3.80;0.90;;;;;;;;;;5094397;28;20497;-48
2022/09/21 04:47:08;;;;;;;2.47;0.90;;;;;;;;;;5094937;28;20059;-47
2022/09/21 04:49:37;;;;;;;1.95;0.77;;;;;;;;;;5094494;28;20052;-50
2022/09/21 04:52:07;;;;;;;1.90;1.05;;;;;;;;;;5094622;28;20477;-51
2022/09/21 04:54:37;;;;;;;2.67;0.55;;;;;;;;;;5094442;28;20083;-48
2022/09/21 04:57:07;;;;;;;2.33;0.82;;;;;;;;;;5093175;28;20135;-48
2022/09/21 04:59:39;;;;;;;1.30;0.50;;;;;;;;;;5094718;28;20105;-49
2022/09/21 05:02:07;;;;;;;1.05;0.55;;;;;;;;;;5093876;28;20143;-48
2022/09/21 05:04:37;;;;;;;1.45;0.50;;;;;;;;;;5094296;28;20044;-51
2022/09/21 05:07:03;;;;;;;1.38;0.73;;;;;;;;;;5094487;28;20061;-51
2022/09/21 05:12:14;;;;;;;2.88;0.50;;;;;;;;;;5088306;28;20174;-48
2022/09/21 05:14:47;;;;;;;0.85;0.30;;;;;;;;;;5093334;28;20068;-48
2022/09/21 05:17:16;;;;;;;2.00;0.45;;;;;;;;;;5094127;28;20036;-48
2022/09/21 05:19:44;;;;;;;0.65;0.40;;;;;;;;;;5092861;28;20052;-48
2022/09/21 05:22:14;;;;;;;1.60;0.40;;;;;;;;;;5084693;28;20048;-48
2022/09/21 05:24:44;;;;;;;1.88;0.43;;;;;;;;;;5084912;28;20044;-48
2022/09/21 05:27:14;;;;;;;2.88;0.60;;;;;;;;;;5093935;28;20040;-48
2022/09/21 05:29:45;;;;;;;1.40;0.38;;;;;;;;;;5094096;28;20139;-48
2022/09/21 05:32:22;;;;;;;0.75;0.43;;;;;;;;;;5093372;28;20059;-48
2022/09/21 05:34:58;;;;;;;1.80;0.30;;;;;;;;;;5089467;28;20437;-49
2022/09/21 05:37:42;;;;;;;0.70;0.50;;;;;;;;;;5094140;28;20052;-50
2022/09/21 05:40:12;;;;;;;3.33;0.40;;;;;;;;;;5085172;28;20066;-48
2022/09/21 05:42:38;;;;;;;1.08;0.55;;;;;;;;;;5093393;28;20142;-48
2022/09/21 05:45:16;;;;;;;1.73;0.30;;;;;;;;;;5085757;28;20074;-49
2022/09/21 05:48:09;;;;;;;0.65;0.25;;;;;;;;;;5093610;28;20048;-49
2022/09/21 05:50:49;;;;;;;1.33;0.45;;;;;;;;;;5090981;28;20047;-51
2022/09/21 05:53:26;;;;;;;1.90;0.63;;;;;;;;;;5093180;28;20127;-48
2022/09/21 05:56:06;;;;;;;3.63;0.43;;;;;;;;;;5092480;28;20074;-49
2022/09/21 05:58:42;;;;;;;1.67;0.43;;;;;;;;;;5091529;28;20658;-49
2022/09/21 06:01:27;;;;;;;0.95;0.43;;;;;;;;;;5077285;28;20760;-48
2022/09/21 06:03:54;;;;;;;4.07;0.73;;;;;;;;;;5090552;28;20052;-48
2022/09/21 06:06:23;;;;;;;1.85;0.68;;;;;;;;;;5074548;28;20048;-50
2022/09/21 06:08:49;;;;;;;3.95;0.80;;;;;;;;;;5092236;28;20059;-48
2022/09/21 06:11:17;;;;;;;1.27;0.35;;;;;;;;;;5086809;28;20380;-49
2022/09/21 06:13:44;;;;;;;3.13;0.80;;;;;;;;;;5071928;28;20054;-50
2022/09/21 06:16:26;;;;;;;2.85;0.93;;;;;;;;;;5086868;28;20063;-51
2022/09/21 06:18:56;;;;;;;4.05;1.25;;;;;;;;;;5090889;28;20060;-49
2022/09/21 06:21:24;;;;;;;2.20;0.90;;;;;;;;;;5090188;28;20055;-48
2022/09/21 06:23:51;;;;;;;2.40;1.13;;;;;;;;;;5079352;28;20040;-49
2022/09/21 06:26:21;;;;;;;4.57;1.10;;;;;;;;;;5079522;28;20048;-49
2022/09/21 06:28:47;;;;;;;6.45;1.38;;;;;;;;;;5087728;28;20148;-49
2022/09/21 06:31:17;;;;;;;1.77;0.70;;;;;;;;;;5088382;28;20329;-48
2022/09/21 06:33:43;;;;;;;1.85;0.70;;;;;;;;;;5087736;28;20040;-51
2022/09/21 06:36:17;;;;;;;2.75;1.00;;;;;;;;;;5088786;28;20056;-49
2022/09/21 06:38:45;;;;;;;1.88;0.85;;;;;;;;;;5080263;28;20121;-49
2022/09/21 06:41:16;;;;;;;4.57;1.23;;;;;;;;;;5085843;28;20059;-48
2022/09/21 06:43:44;;;;;;;3.13;0.90;;;;;;;;;;5089374;28;20076;-48
2022/09/21 06:46:14;;;;;;;4.32;1.20;;;;;;;;;;5089391;28;20043;-48
2022/09/21 06:48:45;;;;;;;2.42;0.88;;;;;;;;;;5090932;28;20130;-49
2022/09/21 06:51:22;;;;;;;1.92;0.63;;;;;;;;;;5088612;28;20135;-48
2022/09/21 06:53:56;;;;;;;1.45;0.50;;;;;;;;;;5090675;28;20059;-48
2022/09/21 06:56:23;;;;;;;2.42;0.63;;;;;;;;;;5091592;28;20083;-48
2022/09/21 06:58:51;;;;;;;2.03;0.77;;;;;;;;;;5091266;28;20528;-48
2022/09/21 07:01:28;;;;;;;2.13;0.70;;;;;;;;;;5089530;28;20127;-47
2022/09/21 07:03:54;;;;;;;2.17;0.55;;;;;;;;;;5088456;28;20048;-46
2022/09/21 07:06:36;;;;;;;2.55;0.50;;;;;;;;;;5089937;28;20048;-48
2022/09/21 07:09:03;;;;;;;2.30;0.82;;;;;;;;;;5089851;28;20058;-48
2022/09/21 07:11:30;;;;;;;1.60;0.73;;;;;;;;;;5089345;28;20052;-47
2022/09/21 07:13:59;;;;;;;3.17;0.70;;;;;;;;;;5090766;28;20048;-48
2022/09/21 07:16:28;;;;;;;5.03;0.80;;;;;;;;;;5091264;28;20121;-48
2022/09/21 07:18:55;;;;;;;2.90;0.70;;;;;;;;;;5090297;28;20104;-47
2022/09/21 07:21:27;;;;;;;5.47;0.70;;;;;;;;;;5088519;28;20063;-47
2022/09/21 07:23:55;;;;;;;1.20;0.80;;;;;;;;;;5083245;28;20503;-47
2022/09/21 07:26:22;;;;;;;3.13;1.05;;;;;;;;;;5077196;28;20437;-49
2022/09/21 07:28:52;;;;;;;3.85;0.88;;;;;;;;;;5088228;28;20196;-48
2022/09/21 07:31:22;;;;;;;2.08;0.73;;;;;;;;;;5090977;28;20051;-47
2022/09/21 07:33:52;;;;;;;1.58;0.80;;;;;;;;;;5086012;28;20462;-46
2022/09/21 07:36:20;;;;;;;1.40;0.70;;;;;;;;;;5080304;28;20066;-50
2022/09/21 07:38:59;;;;;;;2.08;0.93;;;;;;;;;;5085003;28;20044;-48
2022/09/21 07:41:29;;;;;;;2.58;0.95;;;;;;;;;;5087110;28;20345;-50
2022/09/21 07:43:59;;;;;;;4.50;0.80;;;;;;;;;;5081075;28;20063;-49
2022/09/21 07:46:28;;;;;;;2.60;0.88;;;;;;;;;;5086257;28;20048;-48
2022/09/21 07:48:55;;;;;;;2.42;1.00;;;;;;;;;;5087479;28;20058;-49
2022/09/21 07:51:21;;;;;;;2.75;1.00;;;;;;;;;;5092406;28;20052;-48
2022/09/21 07:53:54;;;;;;;2.92;1.08;;;;;;;;;;5095042;28;20051;-47
2022/09/21 07:56:24;;;;;;;5.93;1.27;;;;;;;;;;5095013;28;20063;-48
2022/09/21 07:59:06;;;;;;;4.15;1.20;;;;;;;;;;5081671;28;20053;-47
2022/09/21 08:01:36;;;;;;;2.13;0.90;;;;;;;;;;5090751;28;20078;-49
2022/09/21 08:04:06;;;;;;;2.53;0.70;;;;;;;;;;5095262;28;20036;-47
2022/09/21 08:06:35;;;;;;;2.13;0.68;;;;;;;;;;5093680;28;20476;-49
2022/09/21 08:09:21;;;;;;;2.13;0.73;;;;;;;;;;5092611;28;20048;-49
2022/09/21 08:11:48;;;;;;;3.47;0.93;;;;;;;;;;5088444;28;20154;-50
2022/09/21 08:14:19;;;;;;;2.33;0.70;;;;;;;;;;5094705;28;20734;-49
2022/09/21 08:16:49;;;;;;;1.13;0.52;;;;;;;;;;5087931;28;20048;-48
2022/09/21 08:19:19;;;;;;;1.42;0.40;;;;;;;;;;5086368;28;20048;-49
2022/09/21 08:21:48;;;;;;;1.40;0.25;;;;;;;;;;5092125;28;20102;-49
2022/09/21 08:24:30;;;;;;;1.33;0.40;;;;;;;;;;5089941;28;20090;-48
2022/09/21 08:26:59;;;;;;;1.30;0.52;;;;;;;;;;5090857;28;20044;-48
2022/09/21 08:29:29;;;;;;;1.92;0.40;;;;;;;;;;5082347;28;20071;-49
2022/09/21 08:31:57;;;;;;;1.33;0.50;;;;;;;;;;5094806;28;20044;-49
2022/09/21 08:34:25;;;;;;;3.15;0.60;;;;;;;;;;5086230;28;20079;-48
2022/09/21 08:36:56;;;;;;;3.38;0.40;;;;;;;;;;5087720;28;20395;-49
2022/09/21 08:39:25;;;;;;;2.03;0.57;;;;;;;;;;5085528;28;20056;-48
2022/09/21 08:42:05;;;;;;;1.30;0.40;;;;;;;;;;5084804;28;20048;-49
2022/09/21 08:44:35;;;;;;;1.73;0.35;;;;;;;;;;5092979;28;20524;-50
2022/09/21 08:47:05;;;;;;;1.55;0.57;;;;;;;;;;5083221;28;20074;-49
2022/09/21 08:49:34;;;;;;;1.17;0.50;;;;;;;;;;5085814;28;20052;-48
2022/09/21 08:52:02;;;;;;;1.20;0.43;;;;;;;;;;5093192;28;20048;-48
2022/09/21 08:54:38;;;;;;;1.33;0.47;;;;;;;;;;5092320;28;20036;-49
2022/09/21 08:57:09;;;;;;;0.80;0.50;;;;;;;;;;5089443;28;20047;-47
2022/09/21 08:59:39;;;;;;;1.70;0.40;;;;;;;;;;5084649;28;20056;-48
2022/09/21 09:02:19;;;;;;;1.35;0.40;;;;;;;;;;5090564;28;20063;-52
2022/09/21 09:05:03;;;;;;;0.88;0.40;;;;;;;;;;5085298;28;20044;-52
2022/09/21 09:07:42;;;;;;;0.45;0.32;;;;;;;;;;5084606;28;20074;-49
2022/09/21 09:10:30;;;;;;;2.03;0.40;;;;;;;;;;5086988;28;20061;-48
2022/09/21 09:13:04;;;;;;;0.75;0.30;;;;;;;;;;5093006;28;20161;-48
2022/09/21 09:15:51;;;;;;;0.35;0.20;;;;;;;;;;5086225;28;20048;-52
2022/09/21 09:18:21;;;;;;;0.60;0.30;;;;;;;;;;5079084;28;20067;-49
2022/09/21 09:20:53;;;;;;;1.25;0.30;;;;;;;;;;5085164;28;20461;-51
2022/09/21 09:23:22;;;;;;;2.78;0.50;;;;;;;;;;5093388;28;20044;-48
2022/09/21 09:25:56;;;;;;;0.60;0.30;;;;;;;;;;5093664;28;20040;-50
2022/09/21 09:28:29;;;;;;;1.50;0.40;;;;;;;;;;5083008;28;20079;-51
2022/09/21 09:31:04;;;;;;;2.55;0.50;;;;;;;;;;5084635;28;20052;-49
2022/09/21 09:33:42;;;;;;;1.77;0.40;;;;;;;;;;5089897;28;20081;-49
2022/09/21 09:36:18;;;;;;;1.10;0.30;;;;;;;;;;5086205;28;20067;-52
2022/09/21 09:38:51;;;;;;;1.00;0.30;;;;;;;;;;5082243;28;20048;-51
2022/09/21 09:41:34;;;;;;;1.58;0.32;;;;;;;;;;5084523;28;20048;-53
2022/09/21 09:44:10;;;;;;;0.55;0.30;;;;;;;;;;5081939;28;20047;-51
2022/09/21 09:46:50;;;;;;;1.40;0.25;;;;;;;;;;5083719;28;20403;-50
2022/09/21 09:49:28;;;;;;;1.90;0.20;;;;;;;;;;5085909;28;20101;-48
2022/09/21 09:51:55;;;;;;;0.40;0.20;;;;;;;;;;5083525;28;20799;-49
2022/09/21 09:54:24;;;;;;;1.92;0.30;;;;;;;;;;5088501;28;20060;-50
2022/09/21 09:56:53;;;;;;;1.75;0.52;;;;;;;;;;5089217;28;20468;-49
2022/09/21 09:59:29;;;;;;;1.52;0.40;;;;;;;;;;5091700;28;20113;-49
2022/09/21 10:02:02;;;;;;;2.72;0.30;;;;;;;;;;5086792;28;20063;-50
2022/09/21 10:04:33;;;;;;;1.02;0.20;;;;;;;;;;5089819;28;20080;-49
2022/09/21 10:07:03;;;;;;;1.52;0.50;;;;;;;;;;5089004;28;20492;-50
2022/09/21 10:09:30;;;;;;;4.22;0.90;;;;;;;;;;5086465;28;20105;-48
2022/09/21 10:12:01;;;;;;;1.67;0.47;;;;;;;;;;5088022;28;20075;-48
2022/09/21 10:14:32;;;;;;;1.13;0.30;;;;;;;;;;5089176;28;20047;-48
2022/09/21 10:17:06;;;;;;;3.00;0.73;;;;;;;;;;5088366;28;20079;-48
2022/09/21 10:19:42;;;;;;;1.33;0.28;;;;;;;;;;5084019;28;20079;-47
2022/09/21 10:22:18;;;;;;;3.08;0.30;;;;;;;;;;5082709;28;20058;-48
2022/09/21 10:24:47;;;;;;;2.17;0.30;;;;;;;;;;5081281;28;20076;-48
2022/09/21 10:27:29;;;;;;;1.55;0.75;;;;;;;;;;5077277;28;20365;-48
2022/09/21 10:29:58;;;;;;;1.92;0.47;;;;;;;;;;5083450;28;20063;-54
2022/09/21 10:32:25;;;;;;;1.33;0.30;;;;;;;;;;5092342;28;20048;-53
2022/09/21 10:35:22;;;;;;;3.65;0.77;;;;;;;;;;5089019;28;20530;-50
2022/09/21 10:37:53;;;;;;;4.65;0.60;;;;;;;;;;5070484;28;20051;-48
2022/09/21 10:40:25;;;;;;;1.65;0.57;;;;;;;;;;5086553;28;20056;-50
2022/09/21 10:42:57;;;;;;;1.30;0.55;;;;;;;;;;5081336;28;20051;-48
2022/09/21 10:45:29;;;;;;;2.13;0.65;;;;;;;;;;5089184;28;20473;-48
2022/09/21 10:47:58;;;;;;;2.20;0.55;;;;;;;;;;5087215;28;20055;-48
2022/09/21 10:50:35;;;;;;;3.15;0.52;;;;;;;;;;5088397;28;20044;-48
2022/09/21 10:53:15;;;;;;;0.75;0.20;;;;;;;;;;5079429;28;20733;-48
2022/09/21 10:55:53;;;;;;;1.27;0.43;;;;;;;;;;5089218;28;20048;-48
2022/09/21 10:58:22;;;;;;;1.58;0.40;;;;;;;;;;5075550;28;20052;-48
2022/09/21 11:00:59;;;;;;;0.77;0.30;;;;;;;;;;5083939;28;20051;-47
2022/09/21 11:03:34;;;;;;;0.77;0.32;;;;;;;;;;5088200;28;20117;-52
2022/09/21 11:06:04;;;;;;;1.83;0.40;;;;;;;;;;5077930;28;20048;-47
2022/09/21 11:08:35;;;;;;;1.33;0.40;;;;;;;;;;5082740;28;20082;-47
2022/09/21 11:11:10;;;;;;;0.63;0.30;;;;;;;;;;5082077;28;20078;-50
2022/09/21 11:13:42;;;;;;;1.83;0.40;;;;;;;;;;5086283;28;20048;-50
2022/09/21 11:16:16;;;;;;;1.08;0.57;;;;;;;;;;5086667;28;20052;-48
2022/09/21 11:18:48;;;;;;;1.92;0.30;;;;;;;;;;5083714;28;20083;-48
2022/09/21 11:21:22;;;;;;;1.55;0.30;;;;;;;;;;5089051;28;20060;-46
2022/09/21 11:23:54;;;;;;;1.40;0.38;;;;;;;;;;5095723;28;20085;-47
2022/09/21 11:26:25;;;;;;;1.73;0.30;;;;;;;;;;5092890;28;20056;-47
2022/09/21 11:28:58;;;;;;;3.30;0.98;;;;;;;;;;5089848;28;20396;-48
2022/09/21 11:31:36;;;;;;;0.75;0.35;;;;;;;;;;5087439;28;20055;-48
2022/09/21 11:34:11;;;;;;;1.05;0.60;;;;;;;;;;5087566;28;20522;-47
2022/09/21 11:36:41;;;;;;;0.93;0.30;;;;;;;;;;5089288;28;20048;-49
2022/09/21 11:39:16;;;;;;;1.02;0.43;;;;;;;;;;5088802;28;20450;-49
2022/09/21 11:41:52;;;;;;;1.67;0.40;;;;;;;;;;5089886;28;20083;-48
2022/09/21 11:44:38;;;;;;;3.33;0.50;;;;;;;;;;5087402;28;20048;-49
2022/09/21 11:47:11;;;;;;;1.05;0.50;;;;;;;;;;5093413;28;20127;-49
2022/09/21 11:49:47;;;;;;;1.23;0.40;;;;;;;;;;5090276;28;20044;-47
2022/09/21 11:52:24;;;;;;;2.38;1.00;;;;;;;;;;5088852;28;20064;-50
2022/09/21 11:55:08;;;;;;;1.73;0.40;;;;;;;;;;5083416;28;20484;-48
2022/09/21 11:57:39;;;;;;;0.77;0.30;;;;;;;;;;5092002;28;20541;-48
2022/09/21 12:00:15;;;;;;;2.67;0.40;;;;;;;;;;5086611;28;20742;-48
2022/09/21 12:02:58;;;;;;;0.95;0.38;;;;;;;;;;5089817;28;20133;-48
2022/09/21 12:05:30;;;;;;;1.77;0.50;;;;;;;;;;5091093;28;20040;-49
2022/09/21 12:08:04;;;;;;;3.40;0.57;;;;;;;;;;5092378;28;20045;-49
2022/09/21 12:10:42;;;;;;;1.20;0.40;;;;;;;;;;5089963;28;20064;-48
2022/09/21 12:13:14;;;;;;;1.55;0.47;;;;;;;;;;5091204;28;20048;-48
2022/09/21 12:15:46;;;;;;;1.70;0.50;;;;;;;;;;5092508;28;20052;-48
2022/09/21 12:18:20;;;;;;;2.63;0.50;;;;;;;;;;5094375;28;20051;-47
2022/09/21 12:20:49;;;;;;;2.78;0.73;;;;;;;;;;5085483;28;20066;-47
2022/09/21 12:23:18;;;;;;;1.35;0.50;;;;;;;;;;5087284;28;20056;-49
2022/09/21 12:25:49;;;;;;;1.95;0.50;;;;;;;;;;5094081;28;20032;-48
2022/09/21 12:28:23;;;;;;;0.73;0.35;;;;;;;;;;5081533;28;20056;-48
2022/09/21 12:30:56;;;;;;;2.90;0.43;;;;;;;;;;5092913;28;20086;-49
2022/09/21 12:33:32;;;;;;;4.15;0.60;;;;;;;;;;5092385;28;20052;-51
2022/09/21 12:36:02;;;;;;;1.23;0.40;;;;;;;;;;5090734;28;20056;-48
2022/09/21 12:38:35;;;;;;;1.65;0.60;;;;;;;;;;5094118;28;20511;-50
2022/09/21 12:41:08;;;;;;;1.70;0.35;;;;;;;;;;5089025;28;20048;-52
2022/09/21 12:43:45;;;;;;;2.88;0.63;;;;;;;;;;5089304;28;20131;-45
2022/09/21 12:46:16;;;;;;;1.20;0.40;;;;;;;;;;5089159;28;20036;-48
2022/09/21 12:48:48;;;;;;;0.85;0.50;;;;;;;;;;5092407;28;20456;-45
2022/09/21 12:51:18;;;;;;;2.35;0.40;;;;;;;;;;5089857;28;20048;-47
2022/09/21 12:53:56;;;;;;;1.13;0.28;;;;;;;;;;5089075;28;20468;-46
2022/09/21 12:56:36;;;;;;;1.30;0.43;;;;;;;;;;5086687;28;20051;-47
2022/09/21 12:59:13;;;;;;;1.48;0.50;;;;;;;;;;5092613;28;20083;-48
2022/09/21 13:01:50;;;;;;;0.60;0.30;;;;;;;;;;5086886;28;20150;-51
2022/09/21 13:04:40;;;;;;;1.40;0.38;;;;;;;;;;5093401;28;20060;-46
2022/09/21 13:07:40;;;;;;;1.52;0.40;;;;;;;;;;5086514;28;20101;-45
2022/09/21 13:10:18;;;;;;;2.00;0.30;;;;;;;;;;5087853;28;20048;-46
2022/09/21 13:12:48;;;;;;;3.70;0.65;;;;;;;;;;5093277;28;20048;-46
2022/09/21 13:15:23;;;;;;;1.40;0.57;;;;;;;;;;5091678;28;20048;-45
2022/09/21 13:18:02;;;;;;;0.95;0.45;;;;;;;;;;5093146;28;20044;-46
2022/09/21 13:20:43;;;;;;;1.42;0.40;;;;;;;;;;5073081;28;20044;-46
2022/09/21 13:23:15;;;;;;;2.90;0.60;;;;;;;;;;5072226;28;20144;-46
2022/09/21 13:25:59;;;;;;;2.47;0.57;;;;;;;;;;5073268;28;20128;-46
2022/09/21 13:28:44;;;;;;;0.73;0.40;;;;;;;;;;5072878;28;20075;-46
2022/09/21 13:31:29;;;;;;;1.42;0.40;;;;;;;;;;5075674;28;20052;-47
2022/09/21 13:34:22;;;;;;;4.15;0.50;;;;;;;;;;5067248;28;20366;-46
2022/09/21 13:37:03;;;;;;;1.77;0.30;;;;;;;;;;5072944;28;20335;-46
2022/09/21 13:39:29;;;;;;;0.90;0.30;;;;;;;;;;5072673;28;20056;-47
2022/09/21 13:41:57;;;;;;;3.33;0.50;;;;;;;;;;5077774;28;20056;-48
2022/09/21 13:44:42;;;;;;;1.77;0.40;;;;;;;;;;5072550;28;20110;-48
2022/09/21 13:47:13;;;;;;;2.05;0.30;;;;;;;;;;5068964;28;20049;-46
2022/09/21 13:49:45;;;;;;;3.08;0.60;;;;;;;;;;5078384;28;20059;-47
2022/09/21 13:52:22;;;;;;;1.15;0.40;;;;;;;;;;5072945;28;20067;-47
2022/09/21 13:54:50;;;;;;;1.67;0.40;;;;;;;;;;5079024;28;20067;-49
2022/09/21 13:57:20;;;;;;;1.75;0.38;;;;;;;;;;5069303;28;20044;-48
2022/09/21 13:59:59;;;;;;;3.15;0.40;;;;;;;;;;5083722;28;20373;-47
2022/09/21 14:02:31;;;;;;;0.93;0.40;;;;;;;;;;5072075;28;20076;-50
2022/09/21 14:05:08;;;;;;;2.70;0.60;;;;;;;;;;5072422;28;20457;-46
2022/09/21 14:07:39;;;;;;;1.33;0.50;;;;;;;;;;5073357;28;20726;-46
2022/09/21 14:10:08;;;;;;;3.75;0.40;;;;;;;;;;5072031;28;20075;-46
2022/09/21 14:12:44;;;;;;;1.90;0.57;;;;;;;;;;5069030;28;20055;-45
2022/09/21 14:15:28;;;;;;;1.70;0.57;;;;;;;;;;5072647;28;20048;-49
2022/09/21 14:18:14;;;;;;;1.65;0.43;;;;;;;;;;5076123;28;20049;-45
2022/09/21 14:21:07;;;;;;;3.95;0.30;;;;;;;;;;5067921;28;20044;-46
2022/09/21 14:23:36;;;;;;;1.80;0.30;;;;;;;;;;5076416;28;20168;-44
2022/09/21 14:26:18;;;;;;;1.00;0.40;;;;;;;;;;5061027;28;20513;-46
2022/09/21 14:28:50;;;;;;;0.88;0.30;;;;;;;;;;5071573;28;20476;-47
2022/09/21 14:31:24;;;;;;;2.35;0.70;;;;;;;;;;5072068;28;20072;-46
2022/09/21 14:33:58;;;;;;;2.10;0.52;;;;;;;;;;5064906;28;20103;-48
2022/09/21 14:36:40;;;;;;;2.33;1.00;;;;;;;;;;5060747;28;20048;-47
2022/09/21 14:39:18;;;;;;;1.27;0.40;;;;;;;;;;5040217;28;20060;-46
2022/09/21 14:41:48;;;;;;;3.30;0.40;;;;;;;;;;5060203;28;20120;-47
2022/09/21 14:44:18;;;;;;;1.73;0.52;;;;;;;;;;5068128;28;20054;-50
2022/09/21 14:47:03;;;;;;;1.35;0.40;;;;;;;;;;5064810;28;20503;-47
2022/09/21 14:49:41;;;;;;;3.90;0.38;;;;;;;;;;5058713;28;20071;-46
2022/09/21 14:52:13;;;;;;;2.33;0.80;;;;;;;;;;5069226;28;20079;-46
2022/09/21 14:54:45;;;;;;;2.22;0.60;;;;;;;;;;5069438;28;20087;-46
2022/09/21 14:57:33;;;;;;;2.08;0.70;;;;;;;;;;5060272;28;20049;-45
2022/09/21 15:00:13;;;;;;;2.10;0.40;;;;;;;;;;5070535;28;20048;-44
2022/09/21 15:02:43;;;;;;;3.72;0.50;;;;;;;;;;5069854;28;20463;-44
2022/09/21 15:05:22;;;;;;;2.63;0.50;;;;;;;;;;5061726;28;20049;-45
2022/09/21 15:11:00;;;;;;;7.88;0.75;;;;;;;;;;5069996;28;20059;-47
2022/09/21 15:13:40;;;;;;;1.38;0.40;;;;;;;;;;5068352;28;20045;-45
2022/09/21 15:16:25;;;;;;;1.98;0.60;;;;;;;;;;5061119;28;20063;-45
2022/09/21 15:19:16;;;;;;;1.45;0.65;;;;;;;;;;5077748;28;20472;-45
2022/09/21 15:21:52;;;;;;;2.55;0.68;;;;;;;;;;5083293;28;20068;-45
2022/09/21 15:24:25;;;;;;;1.60;0.55;;;;;;;;;;5089173;28;20364;-47